Time;durP1;ratioP1;P1;durP2;ratioP2;P2;SDS_P1;SDS_P2;PMS_P1;PMS_P2;Temp;Humidity;BMP_temperature;BMP_pressure;BME280_temperature;BME280_humidity;BME280_pressure;Samples;Min_cycle;Max_cycle;Signal;HPM_P1;HPM_P2
2022/04/16 00:00:37;;;;;;;21.45;14.35;;;;;;;8.66;100.00;103128.94;2613131;31;20058;-52
2022/04/16 00:03:07;;;;;;;18.85;14.82;;;;;;;8.67;100.00;103129.81;2613703;36;20035;-54
2022/04/16 00:05:35;;;;;;;17.77;14.75;;;;;;;8.62;100.00;103142.56;2611801;36;21620;-57
2022/04/16 00:08:09;;;;;;;21.10;15.20;;;;;;;8.68;100.00;103139.59;2613331;36;20836;-53
2022/04/16 00:10:39;;;;;;;21.05;15.07;;;;;;;8.58;100.00;103139.13;2613245;36;20042;-54
2022/04/16 00:13:08;;;;;;;18.83;15.10;;;;;;;8.66;100.00;103138.81;2614095;31;20041;-57
2022/04/16 00:15:36;;;;;;;19.00;14.75;;;;;;;8.71;100.00;103148.38;2613431;36;20118;-52
2022/04/16 00:18:05;;;;;;;23.02;16.77;;;;;;;8.69;100.00;103139.53;2613932;31;20400;-54
2022/04/16 00:20:34;;;;;;;21.02;15.75;;;;;;;8.71;100.00;103137.66;2613841;36;20059;-58
2022/04/16 00:23:02;;;;;;;19.70;14.82;;;;;;;8.63;100.00;103138.91;2614202;36;20511;-54
2022/04/16 00:25:34;;;;;;;21.50;15.07;;;;;;;8.62;100.00;103135.38;2613957;36;20413;-55
2022/04/16 00:28:02;;;;;;;20.67;15.20;;;;;;;8.64;100.00;103129.94;2613632;36;20774;-54
2022/04/16 00:30:37;;;;;;;22.42;15.23;;;;;;;8.73;100.00;103124.16;2614802;36;20034;-53
2022/04/16 00:33:06;;;;;;;20.33;15.32;;;;;;;8.76;100.00;103124.91;2613509;36;20107;-54
2022/04/16 00:35:34;;;;;;;20.50;14.00;;;;;;;8.71;100.00;103110.78;2613665;36;20555;-55
2022/04/16 00:38:02;;;;;;;21.42;14.85;;;;;;;8.67;100.00;103119.06;2613302;36;20035;-55
2022/04/16 00:40:34;;;;;;;17.08;14.13;;;;;;;8.68;100.00;103116.31;2612961;36;20075;-56
2022/04/16 00:43:05;;;;;;;31.88;23.05;;;;;;;8.68;100.00;103113.63;2613805;36;20038;-55
2022/04/16 00:45:33;;;;;;;24.95;18.38;;;;;;;8.65;100.00;103121.81;2614526;36;20038;-51
2022/04/16 00:48:04;;;;;;;32.97;26.50;;;;;;;8.66;100.00;103122.72;2615337;36;20073;-57
2022/04/16 00:50:32;;;;;;;32.92;27.55;;;;;;;8.59;100.00;103122.09;2610778;36;20630;-57
2022/04/16 00:53:01;;;;;;;30.20;20.83;;;;;;;8.66;100.00;103128.94;2616038;36;20043;-55
2022/04/16 00:55:30;;;;;;;25.02;18.20;;;;;;;8.67;100.00;103135.16;2613228;36;20046;-55
2022/04/16 00:58:01;;;;;;;25.20;19.05;;;;;;;8.48;100.00;103130.63;2617292;31;20448;-56
2022/04/16 01:00:29;;;;;;;29.85;21.63;;;;;;;8.30;100.00;103134.91;2615509;36;20057;-53
2022/04/16 01:02:58;;;;;;;25.60;19.60;;;;;;;8.16;100.00;103132.81;2615996;36;20650;-57
2022/04/16 01:05:27;;;;;;;21.92;17.40;;;;;;;8.08;100.00;103126.91;2615166;31;20557;-56
2022/04/16 01:07:58;;;;;;;21.02;17.40;;;;;;;7.92;100.00;103137.41;2615366;36;20103;-51
2022/04/16 01:10:29;;;;;;;24.48;17.65;;;;;;;7.79;100.00;103136.13;2612440;31;20044;-54
2022/04/16 01:13:01;;;;;;;24.95;18.27;;;;;;;7.66;100.00;103136.63;2615086;36;20053;-54
2022/04/16 01:15:30;;;;;;;23.95;16.92;;;;;;;7.52;100.00;103138.97;2615265;36;20059;-52
2022/04/16 01:18:02;;;;;;;24.97;17.53;;;;;;;7.31;100.00;103148.72;2613638;36;20048;-56
2022/04/16 01:20:33;;;;;;;23.35;17.52;;;;;;;7.26;100.00;103156.94;2615946;36;20552;-54
2022/04/16 01:23:05;;;;;;;24.00;16.40;;;;;;;7.21;100.00;103153.56;2613689;36;20027;-56
2022/04/16 01:25:35;;;;;;;22.40;16.75;;;;;;;7.14;100.00;103154.72;2615700;36;20035;-55
2022/04/16 01:28:04;;;;;;;22.77;16.90;;;;;;;6.99;100.00;103167.75;2615767;36;20042;-55
2022/04/16 01:30:33;;;;;;;25.92;17.02;;;;;;;6.90;100.00;103162.72;2616006;31;20508;-57
2022/04/16 01:33:03;;;;;;;22.73;16.38;;;;;;;6.87;100.00;103168.19;2616047;36;20130;-56
2022/04/16 01:35:32;;;;;;;23.58;17.02;;;;;;;6.75;100.00;103168.63;2615527;36;20038;-53
2022/04/16 01:38:02;;;;;;;28.67;19.60;;;;;;;6.72;100.00;103171.41;2615270;36;20543;-52
2022/04/16 01:40:33;;;;;;;25.88;20.25;;;;;;;6.76;100.00;103186.44;2611770;36;20040;-53
2022/04/16 01:43:01;;;;;;;23.23;16.88;;;;;;;6.68;100.00;103172.44;2615258;36;20041;-56
2022/04/16 01:45:31;;;;;;;22.75;16.90;;;;;;;6.59;100.00;103174.50;2616217;31;20401;-55
2022/04/16 01:48:00;;;;;;;23.83;17.52;;;;;;;6.56;100.00;103181.78;2616100;36;20030;-54
2022/04/16 01:50:29;;;;;;;24.70;16.88;;;;;;;6.50;100.00;103172.16;2616007;36;20521;-53
2022/04/16 01:52:58;;;;;;;27.92;19.45;;;;;;;6.36;100.00;103171.75;2615390;36;20031;-55
2022/04/16 01:55:26;;;;;;;26.30;18.13;;;;;;;6.31;100.00;103163.88;2615315;36;20137;-55
2022/04/16 01:57:57;;;;;;;30.92;19.30;;;;;;;6.21;100.00;103165.97;2614998;36;20079;-53
2022/04/16 02:00:25;;;;;;;26.35;18.95;;;;;;;6.13;100.00;103168.03;2614052;31;20157;-54
2022/04/16 02:02:53;;;;;;;27.45;18.83;;;;;;;6.17;100.00;103166.13;2614429;36;20035;-55
2022/04/16 02:05:22;;;;;;;26.73;19.02;;;;;;;6.08;100.00;103161.97;2614574;36;20078;-52
2022/04/16 02:07:51;;;;;;;23.52;17.88;;;;;;;6.01;100.00;103160.41;2613614;36;20041;-52
2022/04/16 02:10:19;;;;;;;28.05;20.00;;;;;;;6.00;100.00;103161.34;2613955;36;20063;-50
2022/04/16 02:12:48;;;;;;;26.10;18.80;;;;;;;6.02;100.00;103171.06;2614308;36;20042;-54
2022/04/16 02:15:19;;;;;;;27.98;19.02;;;;;;;6.12;100.00;103171.63;2614856;36;20326;-50
2022/04/16 02:17:47;;;;;;;30.88;21.35;;;;;;;6.08;100.00;103167.31;2614257;36;20126;-55
2022/04/16 02:20:16;;;;;;;33.08;22.02;;;;;;;6.02;100.00;103167.50;2612049;31;20500;-50
2022/04/16 02:22:45;;;;;;;85.82;48.63;;;;;;;5.95;100.00;103167.69;2613686;36;20194;-53
2022/04/16 02:25:15;;;;;;;68.72;38.10;;;;;;;6.02;100.00;103176.44;2614346;36;20081;-55
2022/04/16 02:27:44;;;;;;;57.95;33.03;;;;;;;6.05;100.00;103168.31;2614478;36;20030;-53
2022/04/16 02:30:14;;;;;;;167.82;73.18;;;;;;;6.01;100.00;103171.09;2614375;36;20085;-55
2022/04/16 02:32:46;;;;;;;103.03;51.50;;;;;;;5.99;100.00;103172.97;2614389;36;20035;-54
2022/04/16 02:35:16;;;;;;;51.80;32.33;;;;;;;5.95;100.00;103177.50;2614008;36;20476;-53
2022/04/16 02:37:45;;;;;;;150.88;74.47;;;;;;;5.89;100.00;103177.69;2614473;36;20403;-53
2022/04/16 02:40:14;;;;;;;176.07;90.78;;;;;;;5.92;100.00;103178.47;2613924;36;20065;-54
2022/04/16 02:42:44;;;;;;;148.60;80.90;;;;;;;6.00;100.00;103188.09;2614566;36;20090;-54
2022/04/16 02:47:59;;;;;;;76.35;45.83;;;;;;;6.08;100.00;103194.03;2613918;36;20038;-56
2022/04/16 02:50:28;;;;;;;138.23;81.65;;;;;;;5.99;100.00;103195.22;2615015;36;20424;-53
2022/04/16 02:52:58;;;;;;;208.25;112.72;;;;;;;5.88;100.00;103195.53;2613763;36;20034;-52
2022/04/16 02:55:26;;;;;;;53.58;34.42;;;;;;;5.85;100.00;103189.41;2615321;31;20103;-54
2022/04/16 02:57:55;;;;;;;37.42;23.63;;;;;;;5.78;100.00;103199.41;2614048;36;20045;-52
2022/04/16 03:00:25;;;;;;;29.52;21.17;;;;;;;5.79;100.00;103198.50;2615004;36;20145;-53
2022/04/16 03:02:54;;;;;;;39.95;25.25;;;;;;;5.82;100.00;103202.88;2614616;36;20502;-53
2022/04/16 03:05:25;;;;;;;38.60;24.45;;;;;;;5.67;100.00;103198.84;2614252;36;20038;-57
2022/04/16 03:07:53;;;;;;;38.65;24.27;;;;;;;5.56;100.00;103207.19;2613946;36;20118;-54
2022/04/16 03:10:21;;;;;;;33.00;22.52;;;;;;;5.54;100.00;103199.22;2613460;36;20125;-53
2022/04/16 03:12:51;;;;;;;35.70;23.70;;;;;;;5.50;100.00;103213.59;2614459;36;20045;-49
2022/04/16 03:18:01;;;;;;;34.88;22.77;;;;;;;5.56;100.00;103210.72;2613699;36;20130;-52
2022/04/16 03:20:32;;;;;;;36.97;22.35;;;;;;;5.53;100.00;103210.81;2614914;31;20502;-55
2022/04/16 03:23:02;;;;;;;32.45;22.55;;;;;;;5.60;100.00;103215.06;2614032;36;20068;-52
2022/04/16 03:25:30;;;;;;;;;;;;;;;5.54;100.00;103212.59;2613280;36;20047;-54
2022/04/16 03:27:59;;;;;;;55.60;33.17;;;;;;;5.43;100.00;103207.56;2613724;36;19950;-54
2022/04/16 03:30:27;;;;;;;78.90;43.83;;;;;;;5.42;100.00;103211.16;2613248;36;20043;-54
2022/04/16 03:32:56;;;;;;;46.67;29.15;;;;;;;5.34;100.00;103210.47;2613515;31;20034;-54
2022/04/16 03:35:25;;;;;;;38.90;25.20;;;;;;;5.26;100.00;103199.16;2612914;36;20082;-55
2022/04/16 03:37:57;;;;;;;32.33;21.63;;;;;;;5.36;100.00;103207.75;2614341;36;20035;-56
2022/04/16 03:40:26;;;;;;;32.63;22.17;;;;;;;5.37;100.00;103206.84;2614117;36;20134;-50
2022/04/16 03:42:56;;;;;;;35.65;23.33;;;;;;;5.43;100.00;103214.69;2614866;36;20037;-52
2022/04/16 03:45:27;;;;;;;35.30;23.27;;;;;;;5.30;100.00;103215.97;2613551;36;20038;-52
2022/04/16 03:47:57;;;;;;;35.75;23.35;;;;;;;5.25;100.00;103219.63;2613819;36;20166;-54
2022/04/16 03:50:28;;;;;;;33.17;21.98;;;;;;;5.28;100.00;103209.81;2613507;36;20566;-52
2022/04/16 03:52:59;;;;;;;31.58;21.73;;;;;;;5.32;100.00;103219.47;2614252;36;20139;-55
2022/04/16 04:00:54;;;;;;;32.55;21.38;;;;;;;5.31;100.00;103228.41;2613187;36;20042;-52
2022/04/16 04:03:23;;;;;;;35.75;21.33;;;;;;;5.36;100.00;103221.13;2613673;36;20704;-55
2022/04/16 04:05:53;;;;;;;33.00;21.90;;;;;;;5.42;100.00;103231.66;2614341;36;20125;-51
2022/04/16 04:08:25;;;;;;;38.28;22.27;;;;;;;5.39;100.00;103234.41;2613515;36;20038;-55
2022/04/16 04:10:53;;;;;;;30.65;20.48;;;;;;;5.32;100.00;103224.81;2612167;36;20330;-55
2022/04/16 04:13:23;;;;;;;33.53;23.25;;;;;;;5.21;100.00;103233.09;2614183;36;20022;-50
2022/04/16 04:15:52;;;;;;;30.40;20.75;;;;;;;5.19;100.00;103241.16;2613898;36;20035;-53
2022/04/16 04:18:22;;;;;;;37.90;23.25;;;;;;;5.16;100.00;103235.91;2613933;36;20129;-55
2022/04/16 04:20:50;;;;;;;31.10;21.45;;;;;;;5.12;100.00;103231.56;2614076;31;20137;-55
2022/04/16 04:23:19;;;;;;;35.17;23.10;;;;;;;5.14;100.00;103242.22;2613947;36;20148;-52
2022/04/16 04:25:51;;;;;;;36.55;24.27;;;;;;;5.12;100.00;103228.91;2613483;36;20089;-53
2022/04/16 04:28:19;;;;;;;38.13;24.15;;;;;;;5.04;100.00;103246.94;2613891;36;20061;-52
2022/04/16 04:30:47;;;;;;;37.95;25.60;;;;;;;5.05;100.00;103243.34;2612964;36;20175;-53
2022/04/16 04:33:15;;;;;;;39.40;24.88;;;;;;;5.05;100.00;103246.00;2614974;36;20129;-54
2022/04/16 04:35:44;;;;;;;38.33;24.40;;;;;;;5.09;100.00;103255.69;2614354;31;20488;-52
2022/04/16 04:38:12;;;;;;;39.95;24.10;;;;;;;5.03;100.00;103250.50;2613955;36;20133;-50
2022/04/16 04:40:40;;;;;;;39.45;25.02;;;;;;;4.93;100.00;103260.53;2612728;36;20175;-50
2022/04/16 04:43:11;;;;;;;41.55;25.73;;;;;;;4.94;100.00;103250.78;2613524;36;20110;-56
2022/04/16 04:45:40;;;;;;;40.25;25.67;;;;;;;4.95;100.00;103255.16;2614707;36;20030;-50
2022/04/16 04:48:09;;;;;;;36.63;25.67;;;;;;;4.95;100.00;103268.50;2613286;36;20540;-52
2022/04/16 04:50:38;;;;;;;39.85;26.52;;;;;;;4.87;100.00;103266.94;2614087;36;20133;-55
2022/04/16 04:53:06;;;;;;;41.58;26.52;;;;;;;4.91;100.00;103273.94;2613223;36;20126;-49
2022/04/16 04:55:34;;;;;;;45.10;27.52;;;;;;;4.93;100.00;103273.88;2613838;36;20055;-54
2022/04/16 04:58:02;;;;;;;40.60;27.02;;;;;;;4.90;100.00;103276.63;2613845;36;20118;-54
2022/04/16 05:00:33;;;;;;;39.78;25.67;;;;;;;4.91;100.00;103279.28;2614283;31;20109;-53
2022/04/16 05:03:01;;;;;;;42.65;26.65;;;;;;;4.85;100.00;103279.44;2614956;31;20153;-52
2022/04/16 05:05:30;;;;;;;44.92;25.75;;;;;;;4.91;100.00;103295.28;2613816;36;20050;-54
2022/04/16 05:07:58;;;;;;;47.23;26.47;;;;;;;4.95;100.00;103290.75;2613955;36;20167;-54
2022/04/16 05:10:26;;;;;;;42.35;26.50;;;;;;;4.97;100.00;103293.38;2613565;36;20042;-52
2022/04/16 05:12:58;;;;;;;47.38;28.23;;;;;;;5.00;100.00;103301.31;2614528;36;20503;-53
2022/04/16 05:15:27;;;;;;;48.88;28.83;;;;;;;5.17;100.00;103307.09;2614018;36;20166;-53
2022/04/16 05:17:58;;;;;;;49.40;29.73;;;;;;;5.20;100.00;103307.00;2614336;36;20059;-55
2022/04/16 05:20:26;;;;;;;51.05;31.25;;;;;;;5.34;100.00;103309.28;2613695;36;20130;-54
2022/04/16 05:22:54;;;;;;;46.45;30.85;;;;;;;5.38;100.00;103310.09;2613541;31;20070;-51
2022/04/16 05:25:22;;;;;;;54.60;31.88;;;;;;;5.48;100.00;103310.69;2613435;36;20042;-54
2022/04/16 05:27:51;;;;;;;56.20;32.72;;;;;;;5.62;100.00;103316.53;2613876;36;20125;-52
2022/04/16 05:30:30;;;;;;;61.92;33.58;;;;;;;5.81;100.00;103319.56;2613336;36;20154;-53
2022/04/16 05:33:05;;;;;;;61.17;32.85;;;;;;;5.84;100.00;103319.47;2613848;36;20157;-56
2022/04/16 05:35:34;;;;;;;55.58;32.78;;;;;;;5.81;100.00;103324.91;2615554;31;20411;-55
2022/04/16 05:38:04;;;;;;;61.17;33.85;;;;;;;5.86;100.00;103320.31;2613758;31;20031;-57
2022/04/16 05:40:33;;;;;;;56.15;33.10;;;;;;;5.94;100.00;103320.97;2615228;31;20650;-56
2022/04/16 05:43:01;;;;;;;65.47;35.70;;;;;;;5.96;100.00;103312.88;2614019;36;20491;-54
2022/04/16 05:45:29;;;;;;;60.70;35.85;;;;;;;6.02;100.00;103314.53;2613966;36;20067;-50
2022/04/16 05:48:00;;;;;;;61.15;34.65;;;;;;;6.13;100.00;103315.97;2614558;36;20036;-54
2022/04/16 05:50:28;;;;;;;55.53;32.50;;;;;;;6.23;100.00;103318.38;2614569;36;20023;-58
2022/04/16 05:52:57;;;;;;;57.95;34.53;;;;;;;6.36;100.00;103316.19;2613297;31;20159;-54
2022/04/16 05:55:25;;;;;;;56.03;32.60;;;;;;;6.44;100.00;103322.19;2615265;36;20731;-53
2022/04/16 05:57:54;;;;;;;57.72;34.60;;;;;;;6.53;100.00;103321.88;2614791;36;20152;-54
2022/04/16 06:00:22;;;;;;;59.08;35.17;;;;;;;6.63;100.00;103328.69;2614012;36;20170;-52
2022/04/16 06:02:51;;;;;;;58.42;35.10;;;;;;;6.75;100.00;103334.56;2615410;36;20516;-53
2022/04/16 06:05:22;;;;;;;55.30;33.03;;;;;;;6.84;100.00;103335.13;2614669;36;20034;-54
2022/04/16 06:07:51;;;;;;;58.50;35.47;;;;;;;6.97;100.00;103335.59;2614760;36;20046;-54
2022/04/16 06:10:19;;;;;;;55.85;33.42;;;;;;;7.07;100.00;103330.81;2614126;36;20042;-52
2022/04/16 06:12:47;;;;;;;54.03;32.05;;;;;;;7.09;100.00;103338.81;2614378;36;20163;-54
2022/04/16 06:15:15;;;;;;;49.63;31.70;;;;;;;7.08;100.00;103339.72;2614518;36;20047;-56
2022/04/16 06:17:43;;;;;;;45.42;30.33;;;;;;;7.20;100.00;103347.34;2614792;36;20034;-54
2022/04/16 06:20:13;;;;;;;45.65;27.95;;;;;;;7.26;100.00;103338.19;2614436;36;20163;-53
2022/04/16 06:22:43;;;;;;;44.88;27.88;;;;;;;7.30;100.00;103340.75;2614803;36;20440;-55
2022/04/16 06:25:12;;;;;;;48.42;29.73;;;;;;;7.32;100.00;103341.56;2614589;36;20029;-52
2022/04/16 06:27:41;;;;;;;48.97;30.08;;;;;;;7.52;100.00;103337.28;2614384;36;20039;-57
2022/04/16 06:30:12;;;;;;;45.63;28.17;;;;;;;7.57;100.00;103329.06;2614971;36;20022;-54
2022/04/16 06:32:40;;;;;;;40.88;28.35;;;;;;;7.75;100.00;103328.41;2614753;36;20042;-54
2022/04/16 06:35:12;;;;;;;45.92;28.58;;;;;;;7.67;100.00;103331.38;2615304;36;20022;-56
2022/04/16 06:37:44;;;;;;;40.63;27.30;;;;;;;7.70;100.00;103328.59;2613294;36;20034;-52
2022/04/16 06:40:13;;;;;;;36.20;25.50;;;;;;;7.72;100.00;103324.03;2615575;36;20023;-55
2022/04/16 06:42:42;;;;;;;38.38;25.08;;;;;;;7.91;100.00;103322.50;2614376;36;20042;-53
2022/04/16 06:45:11;;;;;;;;;;;;;;;7.97;100.00;103323.13;2616339;31;20447;-51
2022/04/16 06:47:40;;;;;;;36.28;24.80;;;;;;;8.06;100.00;103319.22;2614484;36;20439;-56
2022/04/16 06:50:10;;;;;;;35.10;22.23;;;;;;;8.20;100.00;103313.28;2614587;36;20042;-54
2022/04/16 06:52:38;;;;;;;38.25;24.85;;;;;;;8.23;100.00;103316.75;2614126;36;20390;-54
2022/04/16 06:55:10;;;;;;;38.35;26.42;;;;;;;8.18;100.00;103315.19;2613877;36;20640;-58
2022/04/16 06:57:38;;;;;;;36.83;23.98;;;;;;;8.33;100.00;103311.91;2613321;36;20035;-54
2022/04/16 07:00:09;;;;;;;32.92;23.35;;;;;;;8.47;100.00;103310.50;2614298;36;20540;-55
2022/04/16 07:02:37;;;;;;;36.10;23.48;;;;;;;8.47;100.00;103307.81;2615341;31;20117;-54
2022/04/16 07:05:06;;;;;;;31.10;21.70;;;;;;;8.49;100.00;103309.47;2614654;36;20065;-50
2022/04/16 07:07:35;;;;;;;29.95;21.10;;;;;;;8.64;100.00;103315.19;2612843;36;20042;-53
2022/04/16 07:10:03;;;;;;;29.70;22.00;;;;;;;8.85;100.00;103319.66;2613945;36;20034;-53
2022/04/16 07:12:34;;;;;;;30.88;21.58;;;;;;;8.97;100.00;103320.97;2614612;31;20118;-52
2022/04/16 07:15:02;;;;;;;30.35;20.40;;;;;;;9.06;100.00;103317.00;2615733;36;20026;-52
2022/04/16 07:17:30;;;;;;;30.55;20.60;;;;;;;9.19;100.00;103314.69;2615802;36;20039;-52
2022/04/16 07:19:59;;;;;;;26.55;19.23;;;;;;;9.31;100.00;103319.50;2614374;36;20031;-52
2022/04/16 07:22:27;;;;;;;28.42;18.95;;;;;;;9.33;100.00;103312.22;2610977;36;20158;-50
2022/04/16 07:24:55;;;;;;;28.48;19.13;;;;;;;9.57;100.00;103312.06;2611821;36;20193;-57
2022/04/16 07:27:23;;;;;;;25.80;18.40;;;;;;;9.79;100.00;103306.59;2613521;31;20074;-56
2022/04/16 07:29:58;;;;;;;23.50;16.52;;;;;;;9.82;100.00;103307.34;2615429;36;20439;-52
2022/04/16 07:32:26;;;;;;;22.75;15.57;;;;;;;9.87;100.00;103306.25;2615051;36;20147;-57
2022/04/16 07:34:54;;;;;;;22.25;16.45;;;;;;;10.02;100.00;103310.91;2615359;36;20363;-56
2022/04/16 07:37:22;;;;;;;22.77;16.65;;;;;;;10.20;100.00;103309.16;2615053;36;20125;-56
2022/04/16 07:39:51;;;;;;;20.83;15.75;;;;;;;10.28;100.00;103311.50;2614676;36;20439;-55
2022/04/16 07:42:19;;;;;;;21.30;14.88;;;;;;;10.27;100.00;103305.22;2614409;36;20035;-55
2022/04/16 07:44:55;;;;;;;21.50;15.40;;;;;;;10.33;100.00;103310.38;2615170;36;20167;-55
2022/04/16 07:47:26;;;;;;;20.55;15.23;;;;;;;10.41;100.00;103311.78;2615749;31;20023;-53
2022/04/16 07:49:54;;;;;;;22.58;15.18;;;;;;;10.45;100.00;103313.41;2615484;36;20034;-55
2022/04/16 07:52:24;;;;;;;19.77;14.15;;;;;;;10.63;100.00;103314.31;2615466;36;20180;-52
2022/04/16 07:54:53;;;;;;;22.52;15.35;;;;;;;10.80;100.00;103308.94;2615929;31;20038;-55
2022/04/16 07:57:22;;;;;;;20.10;14.20;;;;;;;10.98;100.00;103322.44;2614818;36;20056;-56
2022/04/16 07:59:50;;;;;;;;;;;;;;;11.02;100.00;103315.94;2615360;36;20058;-55
2022/04/16 08:02:18;;;;;;;19.70;13.73;;;;;;;11.15;100.00;103316.19;2615489;36;20026;-55
2022/04/16 08:04:49;;;;;;;20.38;13.40;;;;;;;11.30;100.00;103307.28;2615732;36;20039;-52
2022/04/16 08:07:17;;;;;;;18.98;12.80;;;;;;;11.30;100.00;103311.81;2615153;36;20089;-51
2022/04/16 08:09:48;;;;;;;19.63;13.57;;;;;;;11.34;100.00;103302.63;2615432;36;20163;-51
2022/04/16 08:12:16;;;;;;;18.70;13.00;;;;;;;11.50;100.00;103308.94;2615197;31;20023;-55
2022/04/16 08:14:44;;;;;;;19.02;13.50;;;;;;;11.65;100.00;103303.69;2615383;36;20058;-56
2022/04/16 08:17:13;;;;;;;16.95;12.75;;;;;;;11.88;100.00;103307.81;2615686;36;20118;-53
2022/04/16 08:19:41;;;;;;;17.88;13.18;;;;;;;11.80;100.00;103310.06;2615854;36;20039;-51
2022/04/16 08:22:17;;;;;;;18.33;12.93;;;;;;;11.63;100.00;103302.88;2614584;36;20166;-55
2022/04/16 08:25:43;;;;;;;18.10;12.07;;;;;;;11.85;100.00;103305.28;2615202;36;20034;-50
2022/04/16 08:27:34;;;;;;;16.52;12.45;;;;;;;11.80;100.00;103302.84;2615281;36;20072;-53
2022/04/16 08:30:03;;;;;;;18.83;12.70;;;;;;;12.10;100.00;103307.50;2615430;36;20042;-53
2022/04/16 08:32:31;;;;;;;17.60;13.05;;;;;;;12.00;100.00;103306.28;2615526;36;20023;-54
2022/04/16 08:34:59;;;;;;;16.70;12.20;;;;;;;12.16;100.00;103304.50;2615360;36;20562;-54
2022/04/16 08:37:31;;;;;;;18.75;12.75;;;;;;;12.29;100.00;103298.38;2615184;36;20158;-51
2022/04/16 08:40:00;;;;;;;16.98;12.93;;;;;;;12.36;100.00;103313.28;2615525;36;20031;-55
2022/04/16 08:42:28;;;;;;;16.02;11.88;;;;;;;12.58;100.00;103313.78;2615329;36;20458;-54
2022/04/16 08:44:57;;;;;;;14.93;11.20;;;;;;;12.54;100.00;103316.75;2615654;36;20622;-54
2022/04/16 08:47:25;;;;;;;15.55;11.18;;;;;;;12.50;100.00;103315.19;2614601;36;20151;-54
2022/04/16 08:49:54;;;;;;;15.38;11.25;;;;;;;12.52;100.00;103321.38;2615028;36;20118;-55
2022/04/16 08:52:24;;;;;;;16.65;11.68;;;;;;;12.59;100.00;103326.34;2614962;31;20049;-53
2022/04/16 08:54:55;;;;;;;14.63;11.15;;;;;;;12.59;100.00;103323.63;2615617;36;20034;-55
2022/04/16 08:57:24;;;;;;;15.20;11.63;;;;;;;12.75;100.00;103325.44;2615139;36;20026;-54
2022/04/16 08:59:53;;;;;;;15.00;10.73;;;;;;;13.02;100.00;103327.50;2614367;36;20046;-55
2022/04/16 09:02:21;;;;;;;;;;;;;;;13.33;100.00;103321.94;2614950;36;20546;-55
2022/04/16 09:04:50;;;;;;;13.90;9.80;;;;;;;13.38;100.00;103320.84;2615053;36;19958;-53
2022/04/16 09:07:18;;;;;;;;;;;;;;;13.47;100.00;103315.75;2615408;36;20035;-56
2022/04/16 09:09:47;;;;;;;14.88;9.55;;;;;;;13.61;100.00;103311.31;2615160;36;20091;-55
2022/04/16 09:12:21;;;;;;;11.48;8.20;;;;;;;13.80;100.00;103313.72;2615736;36;20122;-53
2022/04/16 09:14:50;;;;;;;11.52;8.95;;;;;;;13.86;100.00;103310.63;2614245;31;20533;-56
2022/04/16 09:17:19;;;;;;;12.88;8.40;;;;;;;14.03;100.00;103304.16;2614488;36;20597;-55
2022/04/16 09:19:55;;;;;;;9.05;7.22;;;;;;;13.78;100.00;103310.22;2615563;36;20166;-56
2022/04/16 09:22:37;;;;;;;9.40;6.80;;;;;;;13.90;100.00;103308.56;2615649;36;20039;-55
2022/04/16 09:25:14;;;;;;;10.32;7.72;;;;;;;14.13;100.00;103302.59;2615782;36;20031;-52
2022/04/16 09:27:49;;;;;;;10.43;7.13;;;;;;;14.17;100.00;103300.53;2615978;36;20035;-54
2022/04/16 09:30:24;;;;;;;10.25;6.85;;;;;;;14.32;100.00;103304.94;2615773;36;20035;-52
2022/04/16 09:32:52;;;;;;;10.32;7.40;;;;;;;14.44;100.00;103296.97;2616220;36;20026;-57
2022/04/16 09:35:28;;;;;;;9.40;6.28;;;;;;;14.41;100.00;103303.44;2615514;36;20214;-56
2022/04/16 09:37:58;;;;;;;9.52;6.95;;;;;;;14.21;100.00;103302.06;2615488;36;20125;-54
2022/04/16 09:40:28;;;;;;;8.35;6.03;;;;;;;14.18;100.00;103296.84;2615146;36;20034;-55
2022/04/16 09:43:04;;;;;;;8.00;5.28;;;;;;;14.34;100.00;103303.00;2615988;36;20034;-52
2022/04/16 09:45:33;;;;;;;9.32;6.72;;;;;;;14.51;100.00;103309.16;2615858;36;20035;-54
2022/04/16 09:48:02;;;;;;;11.90;7.28;;;;;;;14.32;100.00;103304.94;2616308;31;20094;-57
2022/04/16 09:50:32;;;;;;;10.77;6.85;;;;;;;14.26;100.00;103296.34;2615570;36;20094;-54
2022/04/16 09:53:03;;;;;;;8.95;7.07;;;;;;;14.47;100.00;103303.06;2615695;36;20061;-58
2022/04/16 09:55:32;;;;;;;9.10;6.05;;;;;;;14.82;100.00;103301.69;2616060;36;20026;-55
2022/04/16 09:58:05;;;;;;;10.75;6.95;;;;;;;15.16;100.00;103291.25;2615924;36;20065;-53
2022/04/16 10:00:35;;;;;;;9.68;7.05;;;;;;;15.41;100.00;103304.84;2615803;36;20042;-57
2022/04/16 10:03:08;;;;;;;8.75;6.10;;;;;;;14.90;100.00;103304.78;2616041;36;20527;-55
2022/04/16 10:05:37;;;;;;;8.70;6.20;;;;;;;14.78;100.00;103290.22;2616229;36;20058;-53
2022/04/16 10:08:06;;;;;;;8.57;5.82;;;;;;;15.06;100.00;103294.59;2615217;36;20030;-54
2022/04/16 10:10:41;;;;;;;7.15;5.28;;;;;;;14.94;100.00;103300.84;2615734;36;20749;-52
2022/04/16 10:13:14;;;;;;;9.85;5.50;;;;;;;15.17;100.00;103301.13;2615771;36;20035;-54
2022/04/16 10:15:52;;;;;;;8.65;6.38;;;;;;;14.63;100.00;103297.50;2615959;36;20034;-56
2022/04/16 10:18:20;;;;;;;7.57;6.07;;;;;;;14.64;100.00;103298.41;2615761;36;20154;-55
2022/04/16 10:20:56;;;;;;;7.40;5.80;;;;;;;14.57;100.00;103297.88;2616157;36;20035;-56
2022/04/16 10:23:30;;;;;;;9.52;6.38;;;;;;;14.41;100.00;103303.44;2615805;36;20178;-55
2022/04/16 10:26:06;;;;;;;6.05;4.95;;;;;;;14.71;100.00;103295.16;2616930;36;20454;-55
2022/04/16 10:28:42;;;;;;;8.52;5.88;;;;;;;15.15;100.00;103294.91;2616485;31;20038;-56
2022/04/16 10:31:25;;;;;;;7.07;5.32;;;;;;;15.55;100.00;103284.84;2616312;36;20038;-59
2022/04/16 10:34:01;;;;;;;6.53;4.50;;;;;;;15.72;100.00;103299.06;2615772;36;20631;-54
2022/04/16 10:36:32;;;;;;;7.70;5.45;;;;;;;15.89;97.10;103297.88;2615017;36;20043;-57
2022/04/16 10:39:01;;;;;;;6.97;5.18;;;;;;;15.45;100.00;103300.06;2615546;36;20038;-56
2022/04/16 10:41:29;;;;;;;;;;;;;;;15.12;100.00;103292.41;2614778;36;20034;-51
2022/04/16 10:44:02;;;;;;;6.80;5.23;;;;;;;15.21;100.00;103297.22;2615590;36;19940;-55
2022/04/16 10:46:46;;;;;;;7.18;5.47;;;;;;;15.20;100.00;103296.34;2615508;36;20383;-54
2022/04/16 10:49:14;;;;;;;8.80;4.90;;;;;;;14.78;100.00;103290.22;2615068;36;20621;-53
2022/04/16 10:51:43;;;;;;;6.72;4.95;;;;;;;14.95;99.74;103291.75;2615201;36;20037;-51
2022/04/16 10:54:12;;;;;;;6.43;4.80;;;;;;;14.70;100.00;103298.84;2615754;36;20106;-56
2022/04/16 10:56:42;;;;;;;7.78;4.93;;;;;;;15.01;95.47;103283.19;2615793;36;20134;-59
2022/04/16 10:59:13;;;;;;;7.03;4.78;;;;;;;15.15;100.00;103284.06;2615944;36;20026;-56
2022/04/16 11:01:42;;;;;;;7.20;4.72;;;;;;;15.52;92.96;103276.06;2615961;36;20068;-58
2022/04/16 11:04:15;;;;;;;5.72;4.50;;;;;;;15.47;91.60;103275.50;2615488;36;20027;-59
2022/04/16 11:06:51;;;;;;;5.65;4.15;;;;;;;15.55;87.13;103267.72;2615345;36;20034;-58
2022/04/16 11:09:20;;;;;;;5.28;4.28;;;;;;;15.89;92.46;103260.72;2615854;36;20030;-58
2022/04/16 11:11:52;;;;;;;6.53;5.28;;;;;;;15.83;84.69;103265.75;2615297;36;20023;-58
2022/04/16 11:14:28;;;;;;;6.13;4.47;;;;;;;16.01;85.85;103269.81;2616251;31;20043;-58
2022/04/16 11:16:56;;;;;;;6.82;4.50;;;;;;;16.07;83.07;103263.94;2615603;36;20146;-55
2022/04/16 11:19:24;;;;;;;6.93;4.68;;;;;;;16.28;74.87;103266.03;2614692;36;20163;-57
2022/04/16 11:21:52;;;;;;;6.83;4.60;;;;;;;16.29;86.55;103257.75;2615238;36;20479;-56
2022/04/16 11:24:21;;;;;;;5.67;4.10;;;;;;;16.35;79.48;103267.31;2616106;36;20071;-56
2022/04/16 11:34:54;;;;;;;5.45;4.43;;;;;;;16.45;94.03;103249.31;2615957;36;20431;-55
2022/04/16 11:37:23;;;;;;;7.28;4.72;;;;;;;16.52;85.20;103257.00;2614557;36;20038;-56
2022/04/16 11:40:01;;;;;;;6.55;4.68;;;;;;;16.15;83.29;103257.06;2616104;31;20487;-55
2022/04/16 11:42:29;;;;;;;6.95;4.57;;;;;;;16.36;84.90;103271.78;2615150;36;20030;-53